sensor_id;sensor_type;location;lat;lon;timestamp;pressure;altitude;pressure_sealevel;temperature;humidity
43450;BME280;29041;42.266;23.110;2023-08-07T00:00:08;95202.81;;;18.79;86.31
43450;BME280;29041;42.266;23.110;2023-08-07T00:02:56;95209.81;;;18.69;87.22
43450;BME280;29041;42.266;23.110;2023-08-07T00:05:45;95218.72;;;18.59;88.62
43450;BME280;29041;42.266;23.110;2023-08-07T00:08:32;95217.56;;;18.60;89.31
43450;BME280;29041;42.266;23.110;2023-08-07T00:11:19;95217.91;;;18.33;91.55
43450;BME280;29041;42.266;23.110;2023-08-07T00:14:06;95217.09;;;18.11;94.13
43450;BME280;29041;42.266;23.110;2023-08-07T00:16:53;95209.19;;;17.84;97.17
43450;BME280;29041;42.266;23.110;2023-08-07T00:19:43;95212.66;;;17.70;99.77
43450;BME280;29041;42.266;23.110;2023-08-07T00:22:30;95197.97;;;17.78;99.30
43450;BME280;29041;42.266;23.110;2023-08-07T00:25:18;95196.38;;;17.70;100.00
43450;BME280;29041;42.266;23.110;2023-08-07T00:28:05;95214.41;;;18.21;96.15
43450;BME280;29041;42.266;23.110;2023-08-07T00:30:53;95215.91;;;17.97;97.60
43450;BME280;29041;42.266;23.110;2023-08-07T00:33:40;95203.50;;;18.07;98.35
43450;BME280;29041;42.266;23.110;2023-08-07T00:36:28;95198.34;;;17.84;99.97
43450;BME280;29041;42.266;23.110;2023-08-07T00:39:16;95195.59;;;17.76;99.88
43450;BME280;29041;42.266;23.110;2023-08-07T00:42:04;95196.75;;;17.65;99.53
43450;BME280;29041;42.266;23.110;2023-08-07T00:44:52;95203.72;;;17.73;98.74
43450;BME280;29041;42.266;23.110;2023-08-07T00:47:39;95201.72;;;17.52;99.12
43450;BME280;29041;42.266;23.110;2023-08-07T00:50:26;95204.09;;;17.64;98.48
43450;BME280;29041;42.266;23.110;2023-08-07T00:53:15;95217.91;;;18.40;92.99
43450;BME280;29041;42.266;23.110;2023-08-07T00:56:03;95215.59;;;18.42;90.31
43450;BME280;29041;42.266;23.110;2023-08-07T00:58:51;95222.63;;;18.68;87.76
43450;BME280;29041;42.266;23.110;2023-08-07T01:01:38;95216.78;;;18.48;88.59
43450;BME280;29041;42.266;23.110;2023-08-07T01:04:26;95223.31;;;18.26;89.97
43450;BME280;29041;42.266;23.110;2023-08-07T01:07:14;95232.97;;;18.05;90.65
43450;BME280;29041;42.266;23.110;2023-08-07T01:10:03;95241.22;;;18.37;89.31
43450;BME280;29041;42.266;23.110;2023-08-07T01:13:08;95246.88;;;17.92;91.20
43450;BME280;29041;42.266;23.110;2023-08-07T01:16:02;95225.72;;;17.46;95.89
43450;BME280;29041;42.266;23.110;2023-08-07T01:18:53;95240.50;;;17.56;96.79
43450;BME280;29041;42.266;23.110;2023-08-07T01:21:46;95236.22;;;17.51;96.83
43450;BME280;29041;42.266;23.110;2023-08-07T01:24:35;95234.78;;;17.72;95.45
43450;BME280;29041;42.266;23.110;2023-08-07T01:27:31;95238.38;;;17.98;95.73
43450;BME280;29041;42.266;23.110;2023-08-07T01:30:29;95241.19;;;17.38;99.42
43450;BME280;29041;42.266;23.110;2023-08-07T01:33:21;95244.34;;;17.51;98.27
43450;BME280;29041;42.266;23.110;2023-08-07T01:36:10;95253.97;;;17.41;99.75
43450;BME280;29041;42.266;23.110;2023-08-07T01:39:00;95256.69;;;17.41;99.61
43450;BME280;29041;42.266;23.110;2023-08-07T01:41:48;95263.78;;;17.57;99.39
43450;BME280;29041;42.266;23.110;2023-08-07T01:44:36;95257.31;;;17.83;96.58
43450;BME280;29041;42.266;23.110;2023-08-07T01:47:24;95249.06;;;17.62;96.92
43450;BME280;29041;42.266;23.110;2023-08-07T01:50:11;95258.25;;;17.39;99.01
43450;BME280;29041;42.266;23.110;2023-08-07T01:52:58;95253.31;;;17.00;100.00
43450;BME280;29041;42.266;23.110;2023-08-07T01:55:49;95254.44;;;16.95;100.00
43450;BME280;29041;42.266;23.110;2023-08-07T01:58:36;95246.06;;;16.70;100.00
43450;BME280;29041;42.266;23.110;2023-08-07T02:01:23;95254.06;;;16.96;100.00
43450;BME280;29041;42.266;23.110;2023-08-07T02:04:11;95261.91;;;17.09;100.00
43450;BME280;29041;42.266;23.110;2023-08-07T02:06:58;95266.50;;;17.01;100.00
43450;BME280;29041;42.266;23.110;2023-08-07T02:09:45;95274.81;;;17.23;100.00
43450;BME280;29041;42.266;23.110;2023-08-07T02:12:34;95262.03;;;17.27;98.16
43450;BME280;29041;42.266;23.110;2023-08-07T02:15:21;95279.16;;;17.35;98.04
43450;BME280;29041;42.266;23.110;2023-08-07T02:18:08;95265.94;;;17.33;97.54
43450;BME280;29041;42.266;23.110;2023-08-07T02:20:55;95268.56;;;17.19;98.02
43450;BME280;29041;42.266;23.110;2023-08-07T02:23:53;95276.06;;;17.40;96.83
43450;BME280;29041;42.266;23.110;2023-08-07T02:26:40;95268.53;;;17.74;95.22
43450;BME280;29041;42.266;23.110;2023-08-07T02:29:29;95278.38;;;17.38;97.56
43450;BME280;29041;42.266;23.110;2023-08-07T02:32:19;95277.47;;;17.16;97.12
43450;BME280;29041;42.266;23.110;2023-08-07T02:35:07;95272.66;;;16.94;98.47
43450;BME280;29041;42.266;23.110;2023-08-07T02:37:54;95272.47;;;16.76;100.00
43450;BME280;29041;42.266;23.110;2023-08-07T02:40:41;95275.13;;;16.69;100.00
43450;BME280;29041;42.266;23.110;2023-08-07T02:43:28;95280.66;;;16.84;100.00
43450;BME280;29041;42.266;23.110;2023-08-07T02:46:20;95270.03;;;16.64;100.00
43450;BME280;29041;42.266;23.110;2023-08-07T02:49:07;95285.56;;;16.71;100.00
43450;BME280;29041;42.266;23.110;2023-08-07T02:51:54;95283.72;;;16.78;100.00
43450;BME280;29041;42.266;23.110;2023-08-07T02:54:42;95297.31;;;16.44;100.00
43450;BME280;29041;42.266;23.110;2023-08-07T02:57:29;95301.84;;;16.33;100.00
43450;BME280;29041;42.266;23.110;2023-08-07T03:00:16;95321.66;;;16.41;100.00
43450;BME280;29041;42.266;23.110;2023-08-07T03:03:05;95320.09;;;16.40;100.00
43450;BME280;29041;42.266;23.110;2023-08-07T03:05:52;95319.22;;;16.28;100.00
43450;BME280;29041;42.266;23.110;2023-08-07T03:08:39;95328.94;;;16.33;100.00
43450;BME280;29041;42.266;23.110;2023-08-07T03:11:26;95326.84;;;16.19;100.00
43450;BME280;29041;42.266;23.110;2023-08-07T03:14:13;95332.38;;;16.30;100.00
43450;BME280;29041;42.266;23.110;2023-08-07T03:17:00;95336.00;;;16.11;100.00
43450;BME280;29041;42.266;23.110;2023-08-07T03:19:50;95341.28;;;16.00;100.00
43450;BME280;29041;42.266;23.110;2023-08-07T03:22:37;95350.78;;;16.17;100.00
43450;BME280;29041;42.266;23.110;2023-08-07T03:25:24;95332.28;;;16.23;100.00
43450;BME280;29041;42.266;23.110;2023-08-07T03:28:11;95346.34;;;16.70;100.00
43450;BME280;29041;42.266;23.110;2023-08-07T03:30:58;95349.22;;;16.88;100.00
43450;BME280;29041;42.266;23.110;2023-08-07T03:33:46;95342.84;;;16.65;100.00
43450;BME280;29041;42.266;23.110;2023-08-07T03:36:34;95350.22;;;16.34;100.00
43450;BME280;29041;42.266;23.110;2023-08-07T03:39:21;95354.53;;;16.09;100.00
43450;BME280;29041;42.266;23.110;2023-08-07T03:42:09;95352.44;;;16.25;100.00
43450;BME280;29041;42.266;23.110;2023-08-07T03:44:56;95341.66;;;15.98;100.00
43450;BME280;29041;42.266;23.110;2023-08-07T03:47:43;95341.22;;;16.61;100.00
43450;BME280;29041;42.266;23.110;2023-08-07T03:50:30;95342.72;;;16.92;100.00
43450;BME280;29041;42.266;23.110;2023-08-07T03:53:21;95335.03;;;16.26;100.00
43450;BME280;29041;42.266;23.110;2023-08-07T03:56:09;95343.25;;;16.33;100.00
43450;BME280;29041;42.266;23.110;2023-08-07T03:58:56;95341.50;;;16.18;100.00
43450;BME280;29041;42.266;23.110;2023-08-07T04:01:43;95349.41;;;16.30;100.00
43450;BME280;29041;42.266;23.110;2023-08-07T04:04:30;95352.91;;;16.31;100.00
43450;BME280;29041;42.266;23.110;2023-08-07T04:07:17;95350.97;;;16.65;100.00
43450;BME280;29041;42.266;23.110;2023-08-07T04:10:06;95364.63;;;17.14;100.00
43450;BME280;29041;42.266;23.110;2023-08-07T04:12:53;95363.28;;;17.38;100.00
43450;BME280;29041;42.266;23.110;2023-08-07T04:15:41;95364.13;;;17.50;99.46
43450;BME280;29041;42.266;23.110;2023-08-07T04:18:28;95348.47;;;17.28;98.97
43450;BME280;29041;42.266;23.110;2023-08-07T04:21:15;95362.94;;;17.02;100.00
43450;BME280;29041;42.266;23.110;2023-08-07T04:24:02;95355.75;;;17.17;100.00
43450;BME280;29041;42.266;23.110;2023-08-07T04:27:00;95383.88;;;17.02;100.00
43450;BME280;29041;42.266;23.110;2023-08-07T04:29:47;95342.22;;;17.21;100.00
43450;BME280;29041;42.266;23.110;2023-08-07T04:32:34;95377.31;;;17.51;99.41
43450;BME280;29041;42.266;23.110;2023-08-07T04:35:21;95379.41;;;17.69;97.12
43450;BME280;29041;42.266;23.110;2023-08-07T04:38:08;95364.53;;;17.48;98.75
43450;BME280;29041;42.266;23.110;2023-08-07T04:40:55;95378.22;;;17.66;97.01
43450;BME280;29041;42.266;23.110;2023-08-07T04:43:44;95380.50;;;18.16;94.34
43450;BME280;29041;42.266;23.110;2023-08-07T04:46:33;95392.59;;;17.74;96.07
43450;BME280;29041;42.266;23.110;2023-08-07T04:49:20;95394.25;;;17.89;93.91
43450;BME280;29041;42.266;23.110;2023-08-07T04:52:07;95394.53;;;17.70;96.49
43450;BME280;29041;42.266;23.110;2023-08-07T04:55:00;95395.91;;;17.46;98.07
43450;BME280;29041;42.266;23.110;2023-08-07T04:57:47;95384.13;;;17.31;99.72
43450;BME280;29041;42.266;23.110;2023-08-07T05:00:39;95379.44;;;17.76;97.52
43450;BME280;29041;42.266;23.110;2023-08-07T05:03:28;95388.72;;;18.34;92.94
43450;BME280;29041;42.266;23.110;2023-08-07T05:06:16;95378.28;;;18.47;91.69
43450;BME280;29041;42.266;23.110;2023-08-07T05:09:04;95380.84;;;18.11;93.90
43450;BME280;29041;42.266;23.110;2023-08-07T05:11:52;95379.03;;;18.41;93.34
43450;BME280;29041;42.266;23.110;2023-08-07T05:14:39;95384.38;;;18.15;94.04
43450;BME280;29041;42.266;23.110;2023-08-07T05:17:28;95392.69;;;18.55;92.00
43450;BME280;29041;42.266;23.110;2023-08-07T05:20:15;95381.91;;;18.87;89.16
43450;BME280;29041;42.266;23.110;2023-08-07T05:23:02;95387.81;;;19.08;87.84
43450;BME280;29041;42.266;23.110;2023-08-07T05:25:49;95376.44;;;18.77;89.99
43450;BME280;29041;42.266;23.110;2023-08-07T05:28:37;95388.59;;;19.12;88.37
43450;BME280;29041;42.266;23.110;2023-08-07T05:31:24;95389.00;;;19.54;84.98
43450;BME280;29041;42.266;23.110;2023-08-07T05:34:13;95390.53;;;19.08;86.41
43450;BME280;29041;42.266;23.110;2023-08-07T05:37:01;95397.56;;;19.77;84.14
43450;BME280;29041;42.266;23.110;2023-08-07T05:39:48;95389.78;;;19.83;81.92
43450;BME280;29041;42.266;23.110;2023-08-07T05:42:35;95396.38;;;20.04;82.36
43450;BME280;29041;42.266;23.110;2023-08-07T05:45:22;95394.84;;;19.85;83.58
43450;BME280;29041;42.266;23.110;2023-08-07T05:48:09;95386.53;;;20.39;81.30
43450;BME280;29041;42.266;23.110;2023-08-07T05:50:58;95390.06;;;20.39;78.97
43450;BME280;29041;42.266;23.110;2023-08-07T05:53:45;95390.38;;;20.52;76.94
43450;BME280;29041;42.266;23.110;2023-08-07T05:56:33;95383.50;;;20.11;79.56
43450;BME280;29041;42.266;23.110;2023-08-07T05:59:20;95382.56;;;20.61;76.36
43450;BME280;29041;42.266;23.110;2023-08-07T06:02:07;95378.31;;;20.53;75.57
43450;BME280;29041;42.266;23.110;2023-08-07T06:04:56;95379.91;;;20.47;75.11
43450;BME280;29041;42.266;23.110;2023-08-07T06:07:50;95378.75;;;20.44;74.26
43450;BME280;29041;42.266;23.110;2023-08-07T06:10:38;95362.47;;;20.26;73.21
43450;BME280;29041;42.266;23.110;2023-08-07T06:13:25;95379.91;;;20.43;73.15
43450;BME280;29041;42.266;23.110;2023-08-07T06:16:12;95376.91;;;21.01;72.41
43450;BME280;29041;42.266;23.110;2023-08-07T06:18:59;95377.78;;;20.91;73.63
43450;BME280;29041;42.266;23.110;2023-08-07T06:21:46;95362.78;;;21.21;71.99
43450;BME280;29041;42.266;23.110;2023-08-07T06:24:34;95391.16;;;21.31;67.88
43450;BME280;29041;42.266;23.110;2023-08-07T06:27:22;95377.88;;;21.36;69.98
43450;BME280;29041;42.266;23.110;2023-08-07T06:30:10;95379.91;;;21.21;69.08
43450;BME280;29041;42.266;23.110;2023-08-07T06:32:57;95377.31;;;21.56;69.75
43450;BME280;29041;42.266;23.110;2023-08-07T06:35:44;95384.38;;;21.57;68.25
43450;BME280;29041;42.266;23.110;2023-08-07T06:38:32;95380.69;;;21.75;68.92
43450;BME280;29041;42.266;23.110;2023-08-07T06:41:20;95383.31;;;21.89;69.11
43450;BME280;29041;42.266;23.110;2023-08-07T06:44:07;95383.03;;;22.18;68.53
43450;BME280;29041;42.266;23.110;2023-08-07T06:46:54;95388.53;;;22.49;68.11
43450;BME280;29041;42.266;23.110;2023-08-07T06:49:42;95374.47;;;22.50;67.24
43450;BME280;29041;42.266;23.110;2023-08-07T06:52:29;95383.97;;;22.73;64.50
43450;BME280;29041;42.266;23.110;2023-08-07T06:55:16;95379.34;;;22.66;65.13
43450;BME280;29041;42.266;23.110;2023-08-07T06:58:06;95393.41;;;23.00;63.87
43450;BME280;29041;42.266;23.110;2023-08-07T07:00:53;95385.13;;;23.03;64.33
43450;BME280;29041;42.266;23.110;2023-08-07T07:03:41;95393.72;;;23.33;61.11
43450;BME280;29041;42.266;23.110;2023-08-07T07:06:29;95392.94;;;22.39;63.45
43450;BME280;29041;42.266;23.110;2023-08-07T07:09:16;95394.53;;;22.71;65.21
43450;BME280;29041;42.266;23.110;2023-08-07T07:12:04;95386.84;;;22.93;63.22
43450;BME280;29041;42.266;23.110;2023-08-07T07:14:53;95378.72;;;23.13;62.16
43450;BME280;29041;42.266;23.110;2023-08-07T07:17:40;95382.00;;;22.74;63.26
43450;BME280;29041;42.266;23.110;2023-08-07T07:20:27;95390.34;;;22.94;61.13
43450;BME280;29041;42.266;23.110;2023-08-07T07:23:14;95381.16;;;23.35;60.29
43450;BME280;29041;42.266;23.110;2023-08-07T07:26:01;95380.94;;;23.73;59.82
43450;BME280;29041;42.266;23.110;2023-08-07T07:28:48;95375.53;;;23.94;59.14
43450;BME280;29041;42.266;23.110;2023-08-07T07:31:38;95376.41;;;23.87;57.85
43450;BME280;29041;42.266;23.110;2023-08-07T07:34:25;95378.94;;;24.01;55.39
43450;BME280;29041;42.266;23.110;2023-08-07T07:37:13;95367.44;;;24.70;52.96
43450;BME280;29041;42.266;23.110;2023-08-07T07:40:02;95367.47;;;25.24;52.39
43450;BME280;29041;42.266;23.110;2023-08-07T07:42:50;95357.13;;;27.21;47.38
43450;BME280;29041;42.266;23.110;2023-08-07T07:45:37;95339.84;;;29.55;41.83
43450;BME280;29041;42.266;23.110;2023-08-07T07:48:25;95339.09;;;31.19;38.42
43450;BME280;29041;42.266;23.110;2023-08-07T07:51:12;95342.91;;;33.89;33.34
43450;BME280;29041;42.266;23.110;2023-08-07T07:54:00;95338.19;;;33.24;32.64
43450;BME280;29041;42.266;23.110;2023-08-07T07:56:47;95328.97;;;33.68;32.63
43450;BME280;29041;42.266;23.110;2023-08-07T07:59:34;95330.59;;;33.95;31.48
43450;BME280;29041;42.266;23.110;2023-08-07T08:02:22;95333.22;;;34.05;30.92
43450;BME280;29041;42.266;23.110;2023-08-07T08:05:11;95323.09;;;35.13;28.62
43450;BME280;29041;42.266;23.110;2023-08-07T08:07:58;95327.50;;;33.73;30.51
43450;BME280;29041;42.266;23.110;2023-08-07T08:10:45;95332.25;;;32.26;33.26
43450;BME280;29041;42.266;23.110;2023-08-07T08:13:34;95312.75;;;32.95;31.72
43450;BME280;29041;42.266;23.110;2023-08-07T08:16:24;95323.00;;;32.59;32.44
43450;BME280;29041;42.266;23.110;2023-08-07T08:19:11;95320.94;;;34.90;27.88
43450;BME280;29041;42.266;23.110;2023-08-07T08:22:00;95300.69;;;32.98;30.86
43450;BME280;29041;42.266;23.110;2023-08-07T08:24:48;95328.66;;;34.02;29.71
43450;BME280;29041;42.266;23.110;2023-08-07T08:27:35;95324.56;;;33.61;30.88
43450;BME280;29041;42.266;23.110;2023-08-07T08:30:22;95322.94;;;30.46;35.29
43450;BME280;29041;42.266;23.110;2023-08-07T08:33:09;95312.94;;;30.49;36.41
43450;BME280;29041;42.266;23.110;2023-08-07T08:36:00;95322.31;;;29.86;36.83
43450;BME280;29041;42.266;23.110;2023-08-07T08:38:48;95305.47;;;30.83;34.70
43450;BME280;29041;42.266;23.110;2023-08-07T08:41:37;95294.19;;;31.39;35.90
43450;BME280;29041;42.266;23.110;2023-08-07T08:44:25;95294.94;;;29.42;37.26
43450;BME280;29041;42.266;23.110;2023-08-07T08:47:14;95295.84;;;29.39;37.96
43450;BME280;29041;42.266;23.110;2023-08-07T08:50:06;95283.09;;;30.44;37.48
43450;BME280;29041;42.266;23.110;2023-08-07T08:52:55;95268.00;;;31.79;33.04
43450;BME280;29041;42.266;23.110;2023-08-07T08:55:45;95275.84;;;34.13;31.10
43450;BME280;29041;42.266;23.110;2023-08-07T08:58:33;95265.72;;;31.77;33.81
43450;BME280;29041;42.266;23.110;2023-08-07T09:01:21;95268.59;;;33.53;29.73
43450;BME280;29041;42.266;23.110;2023-08-07T09:04:10;95268.50;;;32.62;31.20
43450;BME280;29041;42.266;23.110;2023-08-07T09:06:57;95255.56;;;31.50;33.09
43450;BME280;29041;42.266;23.110;2023-08-07T09:09:46;95256.75;;;33.02;31.12
43450;BME280;29041;42.266;23.110;2023-08-07T09:12:39;95252.56;;;34.69;28.46
43450;BME280;29041;42.266;23.110;2023-08-07T09:15:28;95247.19;;;32.14;31.52
43450;BME280;29041;42.266;23.110;2023-08-07T09:18:16;95259.94;;;33.51;30.97
43450;BME280;29041;42.266;23.110;2023-08-07T09:21:04;95259.94;;;32.20;32.04
43450;BME280;29041;42.266;23.110;2023-08-07T09:23:56;95259.47;;;32.82;32.38
43450;BME280;29041;42.266;23.110;2023-08-07T09:26:43;95261.16;;;33.09;30.89
43450;BME280;29041;42.266;23.110;2023-08-07T09:29:32;95268.97;;;32.90;30.78
43450;BME280;29041;42.266;23.110;2023-08-07T09:32:19;95263.97;;;32.19;33.02
43450;BME280;29041;42.266;23.110;2023-08-07T09:35:08;95271.69;;;32.00;32.85
43450;BME280;29041;42.266;23.110;2023-08-07T09:37:56;95268.44;;;31.87;32.60
43450;BME280;29041;42.266;23.110;2023-08-07T09:40:44;95252.03;;;32.43;33.55
43450;BME280;29041;42.266;23.110;2023-08-07T09:43:33;95275.16;;;31.46;34.53
43450;BME280;29041;42.266;23.110;2023-08-07T09:46:22;95269.56;;;31.56;33.64
43450;BME280;29041;42.266;23.110;2023-08-07T09:49:09;95252.78;;;31.74;33.55
43450;BME280;29041;42.266;23.110;2023-08-07T09:51:57;95274.03;;;31.29;33.95
43450;BME280;29041;42.266;23.110;2023-08-07T09:54:44;95271.78;;;30.14;36.18
43450;BME280;29041;42.266;23.110;2023-08-07T09:57:31;95274.44;;;28.71;38.18
43450;BME280;29041;42.266;23.110;2023-08-07T10:00:20;95273.31;;;29.00;40.15
43450;BME280;29041;42.266;23.110;2023-08-07T10:03:08;95272.81;;;28.29;40.66
43450;BME280;29041;42.266;23.110;2023-08-07T10:05:56;95273.19;;;29.12;40.25
43450;BME280;29041;42.266;23.110;2023-08-07T10:08:44;95256.25;;;29.01;40.67
43450;BME280;29041;42.266;23.110;2023-08-07T10:11:32;95259.78;;;29.98;38.97
43450;BME280;29041;42.266;23.110;2023-08-07T10:14:30;95266.25;;;29.67;39.36
43450;BME280;29041;42.266;23.110;2023-08-07T10:17:18;95267.22;;;28.73;40.15
43450;BME280;29041;42.266;23.110;2023-08-07T10:20:08;95260.88;;;28.32;41.65
43450;BME280;29041;42.266;23.110;2023-08-07T10:23:00;95242.72;;;28.53;40.32
43450;BME280;29041;42.266;23.110;2023-08-07T10:25:51;95261.19;;;28.65;40.08
43450;BME280;29041;42.266;23.110;2023-08-07T10:28:40;95256.41;;;28.88;39.28
43450;BME280;29041;42.266;23.110;2023-08-07T10:31:29;95249.25;;;29.19;40.12
43450;BME280;29041;42.266;23.110;2023-08-07T10:34:16;95247.50;;;28.93;40.16
43450;BME280;29041;42.266;23.110;2023-08-07T10:37:07;95255.72;;;28.75;38.47
43450;BME280;29041;42.266;23.110;2023-08-07T10:40:04;95251.91;;;28.81;39.03
43450;BME280;29041;42.266;23.110;2023-08-07T10:42:59;95246.59;;;28.96;39.13
43450;BME280;29041;42.266;23.110;2023-08-07T10:45:46;95243.00;;;28.77;38.35
43450;BME280;29041;42.266;23.110;2023-08-07T10:48:40;95243.28;;;28.70;40.66
43450;BME280;29041;42.266;23.110;2023-08-07T10:51:29;95242.09;;;29.49;37.52
43450;BME280;29041;42.266;23.110;2023-08-07T10:54:20;95241.34;;;28.89;36.95
43450;BME280;29041;42.266;23.110;2023-08-07T10:57:10;95226.19;;;29.03;36.50
43450;BME280;29041;42.266;23.110;2023-08-07T11:00:01;95223.09;;;28.92;37.11
43450;BME280;29041;42.266;23.110;2023-08-07T11:02:51;95234.13;;;29.51;35.72
43450;BME280;29041;42.266;23.110;2023-08-07T11:05:39;95209.94;;;29.24;34.44
43450;BME280;29041;42.266;23.110;2023-08-07T11:08:26;95210.84;;;29.02;35.49
43450;BME280;29041;42.266;23.110;2023-08-07T11:11:15;95205.03;;;28.59;36.23
43450;BME280;29041;42.266;23.110;2023-08-07T11:14:02;95203.00;;;29.01;36.60
43450;BME280;29041;42.266;23.110;2023-08-07T11:16:49;95191.34;;;28.96;35.76
43450;BME280;29041;42.266;23.110;2023-08-07T11:19:36;95185.91;;;29.34;35.28
43450;BME280;29041;42.266;23.110;2023-08-07T11:22:24;95188.00;;;29.20;36.08
43450;BME280;29041;42.266;23.110;2023-08-07T11:25:12;95179.09;;;29.81;35.12
43450;BME280;29041;42.266;23.110;2023-08-07T11:28:02;95182.81;;;30.39;36.69
43450;BME280;29041;42.266;23.110;2023-08-07T11:30:51;95169.91;;;29.75;37.15
43450;BME280;29041;42.266;23.110;2023-08-07T11:33:38;95183.25;;;29.95;35.67
43450;BME280;29041;42.266;23.110;2023-08-07T11:36:26;95190.19;;;30.00;33.34
43450;BME280;29041;42.266;23.110;2023-08-07T11:39:13;95178.00;;;30.06;35.19
43450;BME280;29041;42.266;23.110;2023-08-07T11:42:02;95160.72;;;30.21;34.70
43450;BME280;29041;42.266;23.110;2023-08-07T11:44:51;95172.69;;;30.36;35.25
43450;BME280;29041;42.266;23.110;2023-08-07T11:47:38;95171.72;;;29.87;35.61
43450;BME280;29041;42.266;23.110;2023-08-07T11:50:27;95161.47;;;29.51;34.36
43450;BME280;29041;42.266;23.110;2023-08-07T11:53:14;95160.63;;;30.15;35.33
43450;BME280;29041;42.266;23.110;2023-08-07T11:56:04;95162.38;;;29.66;33.68
43450;BME280;29041;42.266;23.110;2023-08-07T11:58:52;95150.84;;;29.58;34.13
43450;BME280;29041;42.266;23.110;2023-08-07T12:01:41;95144.38;;;28.96;35.61
43450;BME280;29041;42.266;23.110;2023-08-07T12:04:31;95146.47;;;30.13;34.44
43450;BME280;29041;42.266;23.110;2023-08-07T12:07:24;95155.63;;;29.49;34.68
43450;BME280;29041;42.266;23.110;2023-08-07T12:10:12;95127.63;;;29.93;34.88
43450;BME280;29041;42.266;23.110;2023-08-07T12:12:59;95130.13;;;30.25;34.93
43450;BME280;29041;42.266;23.110;2023-08-07T12:15:51;95147.41;;;28.71;35.21
43450;BME280;29041;42.266;23.110;2023-08-07T12:18:43;95133.78;;;28.36;36.56
43450;BME280;29041;42.266;23.110;2023-08-07T12:21:31;95134.41;;;28.99;36.24
43450;BME280;29041;42.266;23.110;2023-08-07T12:24:19;95125.66;;;29.19;35.80
43450;BME280;29041;42.266;23.110;2023-08-07T12:27:08;95129.03;;;29.23;35.71
43450;BME280;29041;42.266;23.110;2023-08-07T12:29:55;95122.88;;;29.28;36.20
43450;BME280;29041;42.266;23.110;2023-08-07T12:32:42;95121.53;;;29.33;36.68
43450;BME280;29041;42.266;23.110;2023-08-07T12:35:31;95122.56;;;29.73;37.10
43450;BME280;29041;42.266;23.110;2023-08-07T12:38:18;95124.28;;;29.61;37.22
43450;BME280;29041;42.266;23.110;2023-08-07T12:41:05;95123.81;;;29.16;36.09
43450;BME280;29041;42.266;23.110;2023-08-07T12:43:52;95118.44;;;29.03;37.05
43450;BME280;29041;42.266;23.110;2023-08-07T12:46:40;95124.47;;;29.48;36.11
43450;BME280;29041;42.266;23.110;2023-08-07T12:49:27;95124.00;;;29.40;35.08
43450;BME280;29041;42.266;23.110;2023-08-07T12:52:15;95117.38;;;29.47;35.24
43450;BME280;29041;42.266;23.110;2023-08-07T12:55:03;95100.78;;;29.28;37.45
43450;BME280;29041;42.266;23.110;2023-08-07T12:57:52;95109.53;;;29.55;39.70
43450;BME280;29041;42.266;23.110;2023-08-07T13:00:43;95113.31;;;29.95;38.29
43450;BME280;29041;42.266;23.110;2023-08-07T13:03:30;95083.91;;;28.99;37.91
43450;BME280;29041;42.266;23.110;2023-08-07T13:06:17;95109.84;;;29.10;36.82
43450;BME280;29041;42.266;23.110;2023-08-07T13:09:06;95119.84;;;29.64;37.80
43450;BME280;29041;42.266;23.110;2023-08-07T13:11:53;95105.50;;;28.72;39.13
43450;BME280;29041;42.266;23.110;2023-08-07T13:14:41;95111.69;;;28.95;39.98
43450;BME280;29041;42.266;23.110;2023-08-07T13:17:28;95103.09;;;29.49;39.02
43450;BME280;29041;42.266;23.110;2023-08-07T13:20:16;95097.72;;;29.64;39.51
43450;BME280;29041;42.266;23.110;2023-08-07T13:23:03;95102.41;;;29.91;37.49
43450;BME280;29041;42.266;23.110;2023-08-07T13:25:53;95092.91;;;30.26;37.67
43450;BME280;29041;42.266;23.110;2023-08-07T13:28:40;95091.56;;;29.59;37.88
43450;BME280;29041;42.266;23.110;2023-08-07T13:31:27;95088.03;;;30.11;39.30
43450;BME280;29041;42.266;23.110;2023-08-07T13:34:14;95089.78;;;29.99;40.00
43450;BME280;29041;42.266;23.110;2023-08-07T13:37:02;95086.09;;;29.84;40.12
43450;BME280;29041;42.266;23.110;2023-08-07T13:39:49;95085.09;;;30.15;38.85
43450;BME280;29041;42.266;23.110;2023-08-07T13:42:39;95085.72;;;30.19;39.44
43450;BME280;29041;42.266;23.110;2023-08-07T13:45:26;95084.97;;;30.09;38.70
43450;BME280;29041;42.266;23.110;2023-08-07T13:48:14;95087.31;;;30.35;38.43
43450;BME280;29041;42.266;23.110;2023-08-07T13:51:01;95093.28;;;29.20;40.79
43450;BME280;29041;42.266;23.110;2023-08-07T13:53:52;95090.50;;;29.57;41.15
43450;BME280;29041;42.266;23.110;2023-08-07T13:56:40;95090.66;;;29.25;41.01
43450;BME280;29041;42.266;23.110;2023-08-07T13:59:28;95109.47;;;28.62;42.82
43450;BME280;29041;42.266;23.110;2023-08-07T14:02:15;95110.88;;;28.76;43.20
43450;BME280;29041;42.266;23.110;2023-08-07T14:05:03;95107.59;;;28.59;43.46
43450;BME280;29041;42.266;23.110;2023-08-07T14:07:50;95112.38;;;28.68;43.11
43450;BME280;29041;42.266;23.110;2023-08-07T14:10:39;95113.69;;;28.94;43.33
43450;BME280;29041;42.266;23.110;2023-08-07T14:13:26;95117.47;;;28.69;44.00
43450;BME280;29041;42.266;23.110;2023-08-07T14:16:15;95114.34;;;28.58;45.10
43450;BME280;29041;42.266;23.110;2023-08-07T14:19:02;95110.47;;;28.05;46.01
43450;BME280;29041;42.266;23.110;2023-08-07T14:21:49;95132.06;;;27.75;46.90
43450;BME280;29041;42.266;23.110;2023-08-07T14:24:37;95127.50;;;27.81;47.55
43450;BME280;29041;42.266;23.110;2023-08-07T14:27:24;95129.69;;;27.86;48.15
43450;BME280;29041;42.266;23.110;2023-08-07T14:30:11;95136.19;;;27.48;48.31
43450;BME280;29041;42.266;23.110;2023-08-07T14:33:00;95123.59;;;27.25;49.22
43450;BME280;29041;42.266;23.110;2023-08-07T14:35:47;95121.50;;;26.94;49.73